Time;durP1;ratioP1;P1;durP2;ratioP2;P2;SDS_P1;SDS_P2;PMS_P1;PMS_P2;Temp;Humidity;BMP_temperature;BMP_pressure;BME280_temperature;BME280_humidity;BME280_pressure;Samples;Min_cycle;Max_cycle;Signal;HPM_P1;HPM_P2
2022/08/09 00:00:33;;;;;;;2.90;1.00;;;;;;;;;;4967124;28;20050;-63
2022/08/09 00:03:00;;;;;;;1.95;1.17;;;;;;;;;;4972877;28;20077;-59
2022/08/09 00:05:26;;;;;;;3.05;1.15;;;;;;;;;;4966548;28;20065;-58
2022/08/09 00:07:53;;;;;;;2.53;1.15;;;;;;;;;;4972634;28;20050;-61
2022/08/09 00:10:21;;;;;;;1.63;0.90;;;;;;;;;;4967132;28;20042;-64
2022/08/09 00:12:47;;;;;;;1.23;1.00;;;;;;;;;;4972169;28;20056;-60
2022/08/09 00:15:14;;;;;;;2.47;1.00;;;;;;;;;;4965965;28;20050;-62
2022/08/09 00:17:42;;;;;;;1.85;0.90;;;;;;;;;;4990675;28;20058;-60
2022/08/09 00:20:10;;;;;;;1.70;1.02;;;;;;;;;;4980974;28;20054;-63
2022/08/09 00:22:36;;;;;;;1.40;0.80;;;;;;;;;;4969923;28;20053;-60
2022/08/09 00:25:06;;;;;;;2.38;1.20;;;;;;;;;;4964469;28;20049;-57
2022/08/09 00:27:32;;;;;;;1.98;1.13;;;;;;;;;;4972483;28;20049;-59
2022/08/09 00:30:00;;;;;;;3.65;1.17;;;;;;;;;;4971176;28;20112;-62
2022/08/09 00:32:26;;;;;;;2.28;1.05;;;;;;;;;;4982483;28;20137;-61
2022/08/09 00:34:55;;;;;;;6.70;1.45;;;;;;;;;;4971996;28;20050;-58
2022/08/09 00:37:22;;;;;;;;;;;;;;;;;;4965935;28;20047;-62
2022/08/09 00:39:48;;;;;;;1.20;0.80;;;;;;;;;;4987454;28;19944;-60
2022/08/09 00:42:15;;;;;;;2.50;1.10;;;;;;;;;;4965186;28;20121;-62
2022/08/09 00:44:41;;;;;;;4.38;1.27;;;;;;;;;;4987156;28;20062;-62
2022/08/09 00:47:08;;;;;;;3.90;0.90;;;;;;;;;;4965827;28;20065;-64
2022/08/09 00:49:35;;;;;;;2.92;1.17;;;;;;;;;;4971234;28;20054;-57
2022/08/09 00:52:03;;;;;;;2.78;1.30;;;;;;;;;;4956000;28;20058;-62
2022/08/09 00:54:31;;;;;;;2.88;1.05;;;;;;;;;;4973062;28;20058;-60
2022/08/09 00:56:57;;;;;;;2.53;1.13;;;;;;;;;;4966969;28;20055;-64
2022/08/09 00:59:24;;;;;;;1.08;0.80;;;;;;;;;;4971657;28;20054;-59
2022/08/09 01:01:51;;;;;;;3.20;1.20;;;;;;;;;;4970858;28;20046;-61
2022/08/09 01:04:22;;;;;;;3.65;1.10;;;;;;;;;;4966049;28;20069;-62
2022/08/09 01:06:53;;;;;;;3.63;1.30;;;;;;;;;;4954508;28;20117;-62
2022/08/09 01:09:26;;;;;;;2.75;1.38;;;;;;;;;;4969856;28;20100;-60
2022/08/09 01:11:57;;;;;;;1.45;0.98;;;;;;;;;;4976233;28;20054;-61
2022/08/09 01:14:28;;;;;;;2.40;1.15;;;;;;;;;;5024765;28;20104;-58
2022/08/09 01:16:58;;;;;;;3.35;1.10;;;;;;;;;;4995315;28;20113;-60
2022/08/09 01:19:30;;;;;;;5.15;1.13;;;;;;;;;;5012559;28;20058;-59
2022/08/09 01:22:06;;;;;;;2.65;1.20;;;;;;;;;;5013038;28;20100;-59
2022/08/09 01:24:40;;;;;;;2.75;1.10;;;;;;;;;;4962131;28;20054;-63
2022/08/09 01:27:08;;;;;;;4.88;1.20;;;;;;;;;;4993834;28;20249;-62
2022/08/09 01:29:35;;;;;;;;;;;;;;;;;;4999128;28;20058;-57
2022/08/09 01:32:03;;;;;;;2.05;1.00;;;;;;;;;;4993978;28;19933;-62
2022/08/09 01:34:31;;;;;;;0.88;0.80;;;;;;;;;;4996877;28;20067;-63
2022/08/09 01:36:59;;;;;;;2.50;1.10;;;;;;;;;;4975502;28;20058;-62
2022/08/09 01:39:26;;;;;;;2.80;1.15;;;;;;;;;;4977501;28;20081;-59
2022/08/09 01:41:53;;;;;;;2.70;1.20;;;;;;;;;;4986313;28;20089;-61
2022/08/09 01:44:22;;;;;;;3.50;0.98;;;;;;;;;;4997588;28;20053;-61
2022/08/09 01:46:50;;;;;;;1.98;1.00;;;;;;;;;;4980873;28;20082;-61
2022/08/09 01:49:17;;;;;;;3.13;1.05;;;;;;;;;;4977010;28;20061;-63
2022/08/09 01:51:46;;;;;;;3.95;1.20;;;;;;;;;;4974421;28;20085;-62
2022/08/09 01:54:14;;;;;;;2.17;1.08;;;;;;;;;;4997357;28;20057;-62
2022/08/09 01:56:42;;;;;;;2.22;1.10;;;;;;;;;;4993456;28;20049;-59
2022/08/09 01:59:10;;;;;;;5.47;1.13;;;;;;;;;;4974660;28;20117;-60
2022/08/09 02:01:39;;;;;;;4.03;1.50;;;;;;;;;;4976006;28;20061;-61
2022/08/09 02:04:06;;;;;;;2.67;1.02;;;;;;;;;;4970594;28;20065;-60
2022/08/09 02:09:23;;;;;;;2.15;1.38;;;;;;;;;;4960709;28;20062;-62
2022/08/09 02:11:50;;;;;;;2.45;1.00;;;;;;;;;;4988902;28;20054;-62
2022/08/09 02:14:20;;;;;;;4.05;1.75;;;;;;;;;;4980691;28;20066;-61
2022/08/09 02:16:48;;;;;;;3.42;1.15;;;;;;;;;;4973632;28;20082;-62
2022/08/09 02:19:15;;;;;;;3.28;0.88;;;;;;;;;;4971180;28;20061;-60
2022/08/09 02:21:44;;;;;;;2.45;1.20;;;;;;;;;;4977549;28;20058;-62
2022/08/09 02:24:14;;;;;;;2.75;1.00;;;;;;;;;;4994760;28;20049;-64
2022/08/09 02:26:41;;;;;;;2.05;0.90;;;;;;;;;;4972163;28;20043;-62
2022/08/09 02:29:13;;;;;;;1.58;1.08;;;;;;;;;;4973329;28;20054;-61
2022/08/09 02:31:43;;;;;;;1.85;0.90;;;;;;;;;;4967935;28;20050;-59
2022/08/09 02:34:13;;;;;;;2.88;1.27;;;;;;;;;;4972919;28;20054;-61
2022/08/09 02:36:41;;;;;;;1.88;1.00;;;;;;;;;;4967507;28;20050;-58
2022/08/09 02:39:10;;;;;;;2.33;1.20;;;;;;;;;;4973013;28;20054;-62
2022/08/09 02:41:40;;;;;;;2.25;1.00;;;;;;;;;;4968294;28;20062;-59
2022/08/09 02:44:11;;;;;;;7.40;1.00;;;;;;;;;;4980045;28;20054;-60
2022/08/09 02:46:38;;;;;;;2.90;1.15;;;;;;;;;;4981109;28;20065;-62
2022/08/09 02:49:07;;;;;;;1.73;0.93;;;;;;;;;;4974416;28;20057;-59
2022/08/09 02:51:36;;;;;;;3.05;1.08;;;;;;;;;;4967328;28;20065;-62
2022/08/09 02:54:04;;;;;;;2.53;1.05;;;;;;;;;;4973070;28;20066;-63
2022/08/09 02:56:31;;;;;;;3.50;1.30;;;;;;;;;;4963069;28;20085;-64
2022/08/09 02:58:58;;;;;;;3.95;1.48;;;;;;;;;;4953501;28;20055;-64
2022/08/09 03:01:25;;;;;;;1.33;0.90;;;;;;;;;;4951369;28;20163;-60
2022/08/09 03:03:53;;;;;;;2.40;1.13;;;;;;;;;;4945398;28;20054;-58
2022/08/09 03:06:21;;;;;;;3.35;1.55;;;;;;;;;;4980164;28;20053;-61
2022/08/09 03:08:49;;;;;;;3.10;1.30;;;;;;;;;;4947099;28;20061;-61
2022/08/09 03:11:18;;;;;;;3.75;1.08;;;;;;;;;;4945698;28;20077;-58
2022/08/09 03:13:45;;;;;;;3.80;1.40;;;;;;;;;;4946373;28;20110;-58
2022/08/09 03:16:13;;;;;;;1.73;0.85;;;;;;;;;;4953144;28;20050;-57
2022/08/09 03:18:39;;;;;;;3.55;1.45;;;;;;;;;;4945643;28;20130;-62
2022/08/09 03:21:06;;;;;;;1.52;1.10;;;;;;;;;;4954295;28;20121;-58
2022/08/09 03:23:33;;;;;;;0.82;0.80;;;;;;;;;;4965895;28;20059;-61
2022/08/09 03:26:01;;;;;;;3.13;1.20;;;;;;;;;;4952362;28;20054;-59
2022/08/09 03:28:29;;;;;;;1.60;1.02;;;;;;;;;;4977429;28;20055;-59
2022/08/09 03:30:56;;;;;;;3.58;1.00;;;;;;;;;;4947612;28;20062;-60
2022/08/09 03:33:23;;;;;;;1.58;1.10;;;;;;;;;;4949138;28;20044;-61
2022/08/09 03:35:50;;;;;;;3.08;1.30;;;;;;;;;;4947388;28;20074;-60
2022/08/09 03:38:17;;;;;;;2.80;1.20;;;;;;;;;;4948520;28;20054;-59
2022/08/09 03:40:43;;;;;;;2.53;1.20;;;;;;;;;;4947425;28;20058;-58
2022/08/09 03:43:12;;;;;;;2.10;1.38;;;;;;;;;;4955384;28;20110;-60
2022/08/09 03:45:39;;;;;;;2.33;1.17;;;;;;;;;;4950864;28;20051;-60
2022/08/09 03:48:05;;;;;;;2.50;1.33;;;;;;;;;;4968365;28;20053;-62
2022/08/09 03:50:33;;;;;;;2.00;1.10;;;;;;;;;;4945731;28;20113;-58
2022/08/09 03:53:01;;;;;;;1.80;1.02;;;;;;;;;;4943917;28;20050;-60
2022/08/09 03:55:28;;;;;;;1.90;1.00;;;;;;;;;;4974661;28;20042;-63
2022/08/09 03:57:55;;;;;;;2.10;1.23;;;;;;;;;;4939553;28;20107;-62
2022/08/09 04:00:23;;;;;;;1.73;1.20;;;;;;;;;;4946377;28;20051;-64
2022/08/09 04:02:50;;;;;;;2.30;1.20;;;;;;;;;;4962770;28;20118;-62
2022/08/09 04:05:16;;;;;;;2.88;1.20;;;;;;;;;;4952448;28;20055;-62
2022/08/09 04:07:44;;;;;;;4.50;1.48;;;;;;;;;;4952851;28;20063;-56
2022/08/09 04:10:13;;;;;;;2.83;1.33;;;;;;;;;;4946116;28;20059;-62
2022/08/09 04:12:44;;;;;;;2.97;1.20;;;;;;;;;;4951847;28;20057;-64
2022/08/09 04:15:11;;;;;;;1.40;0.95;;;;;;;;;;4946895;28;20054;-63
2022/08/09 04:17:40;;;;;;;2.42;1.20;;;;;;;;;;4952874;28;20054;-61
2022/08/09 04:20:07;;;;;;;2.45;1.17;;;;;;;;;;4947240;28;20066;-63
2022/08/09 04:22:34;;;;;;;2.53;1.02;;;;;;;;;;4953770;28;20055;-63
2022/08/09 04:25:07;;;;;;;2.53;1.25;;;;;;;;;;4948144;28;20046;-63
2022/08/09 04:27:34;;;;;;;3.03;1.27;;;;;;;;;;4953152;28;20078;-60
2022/08/09 04:30:01;;;;;;;4.40;1.20;;;;;;;;;;4947382;28;20065;-62
2022/08/09 04:32:28;;;;;;;3.00;1.33;;;;;;;;;;4944672;28;20058;-59
2022/08/09 04:34:56;;;;;;;3.58;1.83;;;;;;;;;;4946929;28;20110;-59
2022/08/09 04:37:23;;;;;;;2.17;1.30;;;;;;;;;;4933234;29;20051;-64
2022/08/09 04:39:50;;;;;;;2.88;1.27;;;;;;;;;;4932716;29;20063;-62
2022/08/09 04:42:16;;;;;;;1.83;1.13;;;;;;;;;;4945472;28;20058;-60
2022/08/09 04:44:43;;;;;;;2.78;1.40;;;;;;;;;;4951931;28;20054;-63
2022/08/09 04:47:10;;;;;;;2.45;1.40;;;;;;;;;;4946504;28;20042;-62
2022/08/09 04:49:37;;;;;;;4.45;1.60;;;;;;;;;;4951058;28;20141;-59
2022/08/09 04:52:05;;;;;;;3.83;1.85;;;;;;;;;;4945718;28;20076;-61
2022/08/09 04:54:32;;;;;;;2.58;1.30;;;;;;;;;;4951478;28;20162;-62
2022/08/09 04:56:59;;;;;;;1.77;1.23;;;;;;;;;;4936578;28;20051;-62
2022/08/09 04:59:26;;;;;;;3.38;1.40;;;;;;;;;;4932292;29;20062;-60
2022/08/09 05:01:52;;;;;;;6.63;2.42;;;;;;;;;;4938905;28;20153;-62
2022/08/09 05:04:19;;;;;;;3.58;1.35;;;;;;;;;;4964478;28;20061;-62
2022/08/09 05:06:48;;;;;;;3.88;1.52;;;;;;;;;;4959416;28;20046;-64
2022/08/09 05:09:16;;;;;;;4.50;1.98;;;;;;;;;;4972711;28;20054;-63
2022/08/09 05:11:43;;;;;;;5.05;1.90;;;;;;;;;;4967256;28;20121;-59
2022/08/09 05:14:09;;;;;;;4.18;2.13;;;;;;;;;;4973539;28;20054;-63
2022/08/09 05:16:36;;;;;;;3.25;1.52;;;;;;;;;;4985760;28;20330;-61
2022/08/09 05:19:03;;;;;;;2.70;1.42;;;;;;;;;;4973082;28;20057;-64
2022/08/09 05:21:30;;;;;;;9.93;2.95;;;;;;;;;;4973815;28;20058;-63
2022/08/09 05:23:56;;;;;;;4.28;2.30;;;;;;;;;;4966732;28;20066;-60
2022/08/09 05:26:24;;;;;;;4.43;1.50;;;;;;;;;;4994756;28;20051;-63
2022/08/09 05:28:51;;;;;;;9.30;2.72;;;;;;;;;;4966094;28;20045;-60
2022/08/09 05:31:18;;;;;;;3.53;1.65;;;;;;;;;;4972966;28;20061;-63
2022/08/09 05:33:45;;;;;;;4.50;1.45;;;;;;;;;;4964312;28;20059;-63
2022/08/09 05:36:12;;;;;;;4.63;2.05;;;;;;;;;;4966662;28;20065;-60
2022/08/09 05:38:38;;;;;;;4.80;1.98;;;;;;;;;;4959261;28;20141;-62
2022/08/09 05:41:05;;;;;;;1.92;1.40;;;;;;;;;;4971442;28;20058;-63
2022/08/09 05:43:34;;;;;;;3.05;1.50;;;;;;;;;;4958199;28;20117;-63
2022/08/09 05:46:00;;;;;;;5.68;1.85;;;;;;;;;;4973160;28;20061;-60
2022/08/09 05:48:27;;;;;;;8.40;3.67;;;;;;;;;;4964871;28;20054;-60
2022/08/09 05:50:54;;;;;;;2.92;1.70;;;;;;;;;;4962277;28;20051;-59
2022/08/09 05:53:21;;;;;;;2.85;1.65;;;;;;;;;;4966569;28;20057;-61
2022/08/09 05:55:48;;;;;;;3.88;1.48;;;;;;;;;;4976431;28;20056;-62
2022/08/09 05:58:14;;;;;;;3.63;1.67;;;;;;;;;;4988006;28;20042;-59
2022/08/09 06:00:42;;;;;;;5.35;2.22;;;;;;;;;;4973449;28;20074;-60
2022/08/09 06:03:09;;;;;;;5.20;2.70;;;;;;;;;;4974489;28;20062;-58
2022/08/09 06:05:35;;;;;;;6.03;2.10;;;;;;;;;;4968267;28;20058;-60
2022/08/09 06:08:02;;;;;;;6.85;1.95;;;;;;;;;;4973550;28;20058;-63
2022/08/09 06:10:37;;;;;;;4.95;2.13;;;;;;;;;;4963813;28;20058;-62
2022/08/09 06:13:05;;;;;;;6.72;2.45;;;;;;;;;;4987252;28;20136;-62
2022/08/09 06:15:31;;;;;;;8.80;2.45;;;;;;;;;;4965511;28;20046;-64
2022/08/09 06:17:59;;;;;;;3.70;1.60;;;;;;;;;;4973352;28;20046;-62
2022/08/09 06:20:26;;;;;;;3.42;1.50;;;;;;;;;;4967067;28;20129;-63
2022/08/09 06:22:54;;;;;;;4.95;1.65;;;;;;;;;;4973484;28;20054;-63
2022/08/09 06:25:21;;;;;;;4.55;1.52;;;;;;;;;;4974433;28;20073;-60
2022/08/09 06:27:48;;;;;;;5.78;2.20;;;;;;;;;;4989789;28;20046;-61
2022/08/09 06:30:14;;;;;;;3.47;1.63;;;;;;;;;;4978823;28;20042;-64
2022/08/09 06:32:41;;;;;;;4.43;2.00;;;;;;;;;;4963462;28;20055;-60
2022/08/09 06:35:09;;;;;;;2.92;1.60;;;;;;;;;;4966640;28;20066;-63
2022/08/09 06:37:36;;;;;;;;;;;;;;;;;;4990344;28;20069;-62
2022/08/09 06:40:03;;;;;;;2.53;1.50;;;;;;;;;;4982592;28;19929;-64
2022/08/09 06:42:32;;;;;;;1.95;1.23;;;;;;;;;;4953805;28;20058;-62
2022/08/09 06:44:59;;;;;;;5.00;2.03;;;;;;;;;;4951270;28;20102;-64
2022/08/09 06:47:25;;;;;;;3.55;1.70;;;;;;;;;;4953898;28;20062;-63
2022/08/09 06:49:52;;;;;;;5.28;1.83;;;;;;;;;;4954740;28;20057;-63
2022/08/09 06:52:20;;;;;;;4.43;1.80;;;;;;;;;;4968619;28;20069;-63
2022/08/09 06:54:49;;;;;;;6.07;2.15;;;;;;;;;;4974883;28;20054;-64
2022/08/09 06:57:15;;;;;;;;;;;;;;;;;;4968668;28;20062;-62
2022/08/09 06:59:43;;;;;;;6.85;2.00;;;;;;;;;;4992813;28;19922;-61
2022/08/09 07:02:11;;;;;;;2.35;1.33;;;;;;;;;;4974473;28;20074;-61
2022/08/09 07:04:37;;;;;;;6.57;1.58;;;;;;;;;;4952939;28;20055;-62
2022/08/09 07:07:04;;;;;;;4.05;1.60;;;;;;;;;;4983069;28;20046;-63
2022/08/09 07:09:32;;;;;;;2.88;1.38;;;;;;;;;;4964328;28;20057;-62
2022/08/09 07:11:58;;;;;;;5.03;1.70;;;;;;;;;;4972893;28;20105;-64
2022/08/09 07:14:25;;;;;;;3.13;1.63;;;;;;;;;;4973908;28;20058;-65
2022/08/09 07:16:51;;;;;;;3.47;1.42;;;;;;;;;;4969552;28;20062;-59
2022/08/09 07:19:18;;;;;;;2.38;1.20;;;;;;;;;;4972174;28;20058;-63
2022/08/09 07:21:44;;;;;;;3.25;1.25;;;;;;;;;;4972614;28;20062;-62
2022/08/09 07:24:11;;;;;;;2.45;1.38;;;;;;;;;;4968615;28;20059;-64
2022/08/09 07:26:39;;;;;;;2.30;1.30;;;;;;;;;;4974067;28;20062;-64
2022/08/09 07:29:06;;;;;;;4.28;1.83;;;;;;;;;;4970059;28;20065;-60
2022/08/09 07:31:32;;;;;;;3.20;1.35;;;;;;;;;;4971836;28;20105;-62
2022/08/09 07:33:59;;;;;;;2.50;1.08;;;;;;;;;;4956912;28;20058;-60
2022/08/09 07:36:31;;;;;;;3.47;1.30;;;;;;;;;;4981257;28;20054;-61
2022/08/09 07:38:58;;;;;;;2.15;1.35;;;;;;;;;;4977700;28;20056;-62
2022/08/09 07:41:25;;;;;;;3.35;1.13;;;;;;;;;;4974579;28;20057;-62
2022/08/09 07:43:53;;;;;;;3.50;1.73;;;;;;;;;;4972621;28;20061;-62
2022/08/09 07:46:20;;;;;;;2.17;0.95;;;;;;;;;;4970653;28;20049;-58
2022/08/09 07:48:46;;;;;;;5.68;1.02;;;;;;;;;;4972824;28;20050;-63
2022/08/09 07:51:13;;;;;;;1.23;1.00;;;;;;;;;;4968585;28;20129;-63
2022/08/09 07:53:40;;;;;;;2.60;1.17;;;;;;;;;;4972438;28;20046;-64
2022/08/09 07:56:07;;;;;;;1.70;1.20;;;;;;;;;;4967953;28;20054;-62
2022/08/09 07:58:34;;;;;;;3.35;1.17;;;;;;;;;;4986397;28;20046;-62
2022/08/09 08:01:02;;;;;;;2.97;1.08;;;;;;;;;;4987174;28;20054;-63
2022/08/09 08:03:29;;;;;;;2.50;1.20;;;;;;;;;;4971093;28;20054;-63
2022/08/09 08:05:55;;;;;;;1.25;0.90;;;;;;;;;;4971318;28;20054;-61
2022/08/09 08:08:23;;;;;;;2.03;0.93;;;;;;;;;;4970487;28;20052;-62
2022/08/09 08:10:49;;;;;;;3.80;1.00;;;;;;;;;;4988006;28;20053;-59
2022/08/09 08:13:16;;;;;;;1.88;0.85;;;;;;;;;;4982300;28;20162;-61
2022/08/09 08:15:42;;;;;;;1.88;1.00;;;;;;;;;;4972812;28;20058;-63
2022/08/09 08:18:10;;;;;;;1.80;0.88;;;;;;;;;;4972600;28;20050;-63
2022/08/09 08:20:37;;;;;;;1.60;0.93;;;;;;;;;;4968651;28;20046;-62
2022/08/09 08:23:04;;;;;;;3.72;0.98;;;;;;;;;;4971126;28;20050;-62
2022/08/09 08:25:31;;;;;;;1.30;0.80;;;;;;;;;;4965834;28;20050;-62
2022/08/09 08:27:57;;;;;;;4.95;1.00;;;;;;;;;;4970896;28;20073;-61
2022/08/09 08:30:24;;;;;;;3.20;0.90;;;;;;;;;;4982413;28;20153;-61
2022/08/09 08:32:51;;;;;;;1.70;0.80;;;;;;;;;;4971891;28;20062;-63
2022/08/09 08:35:19;;;;;;;2.30;1.05;;;;;;;;;;4966476;28;20042;-63
2022/08/09 08:37:46;;;;;;;2.67;1.02;;;;;;;;;;4971415;28;20054;-62
2022/08/09 08:40:13;;;;;;;2.60;0.93;;;;;;;;;;4966358;28;20043;-60
2022/08/09 08:42:40;;;;;;;1.95;0.80;;;;;;;;;;4972189;28;20050;-61
2022/08/09 08:45:07;;;;;;;2.08;0.88;;;;;;;;;;4966135;28;20149;-62
2022/08/09 08:47:34;;;;;;;1.70;0.80;;;;;;;;;;4971547;28;20133;-63
2022/08/09 08:50:01;;;;;;;2.22;0.90;;;;;;;;;;4965130;28;20050;-64
2022/08/09 08:52:29;;;;;;;1.30;0.68;;;;;;;;;;4971892;28;20137;-62
2022/08/09 08:54:56;;;;;;;;;;;;;;;;;;4972417;28;20057;-63
2022/08/09 08:57:23;;;;;;;1.02;0.50;;;;;;;;;;4965709;28;19976;-63
2022/08/09 08:59:50;;;;;;;1.30;0.88;;;;;;;;;;4969109;28;20136;-62
2022/08/09 09:02:22;;;;;;;2.05;0.90;;;;;;;;;;4950240;28;20047;-63
2022/08/09 09:04:57;;;;;;;4.40;0.90;;;;;;;;;;4952499;28;20053;-63
2022/08/09 09:07:24;;;;;;;2.17;0.88;;;;;;;;;;4932836;28;20122;-62
2022/08/09 09:09:53;;;;;;;1.30;0.90;;;;;;;;;;4950448;28;20090;-59
2022/08/09 09:12:21;;;;;;;1.95;0.80;;;;;;;;;;4940605;28;20121;-64
2022/08/09 09:14:50;;;;;;;1.45;0.82;;;;;;;;;;4953665;28;20066;-63
2022/08/09 09:17:16;;;;;;;1.77;0.80;;;;;;;;;;4947379;28;20082;-60
2022/08/09 09:19:43;;;;;;;1.10;0.70;;;;;;;;;;4952420;28;20110;-63
2022/08/09 09:22:12;;;;;;;0.85;0.70;;;;;;;;;;4947409;28;20058;-64
2022/08/09 09:24:40;;;;;;;3.53;1.08;;;;;;;;;;4955687;28;20122;-61
2022/08/09 09:27:09;;;;;;;1.98;0.68;;;;;;;;;;4949614;28;20115;-62
2022/08/09 09:29:37;;;;;;;4.13;0.70;;;;;;;;;;4955108;28;20054;-62
2022/08/09 09:32:04;;;;;;;1.42;0.60;;;;;;;;;;4946455;28;20051;-62
2022/08/09 09:34:32;;;;;;;2.40;0.82;;;;;;;;;;4938980;29;20050;-64
2022/08/09 09:36:59;;;;;;;2.00;0.80;;;;;;;;;;4933987;28;20123;-64
2022/08/09 09:39:26;;;;;;;1.92;0.80;;;;;;;;;;4955063;28;20055;-64
2022/08/09 09:41:53;;;;;;;3.72;0.70;;;;;;;;;;4951726;28;20055;-61
2022/08/09 09:44:29;;;;;;;1.08;0.70;;;;;;;;;;4955215;28;20054;-64
2022/08/09 09:46:56;;;;;;;4.13;0.80;;;;;;;;;;4956163;28;20054;-62
2022/08/09 09:49:24;;;;;;;1.70;0.80;;;;;;;;;;4949180;28;20058;-64
2022/08/09 09:51:59;;;;;;;2.85;0.80;;;;;;;;;;4955774;28;20055;-62
2022/08/09 09:54:34;;;;;;;6.22;0.75;;;;;;;;;;4950947;28;20102;-64
2022/08/09 09:57:12;;;;;;;2.15;0.80;;;;;;;;;;4955469;28;20047;-64
2022/08/09 09:59:40;;;;;;;1.17;0.70;;;;;;;;;;4950108;28;20083;-63
2022/08/09 10:02:08;;;;;;;4.28;0.80;;;;;;;;;;4956124;28;20143;-63
2022/08/09 10:04:38;;;;;;;4.40;0.70;;;;;;;;;;4950696;28;20054;-63
2022/08/09 10:07:05;;;;;;;1.98;0.80;;;;;;;;;;4973111;28;20129;-63
2022/08/09 10:09:46;;;;;;;1.48;0.70;;;;;;;;;;4961373;28;20149;-62
2022/08/09 10:12:13;;;;;;;4.50;0.80;;;;;;;;;;4974691;28;20050;-63
2022/08/09 10:14:42;;;;;;;2.42;0.80;;;;;;;;;;4945476;28;20087;-63
2022/08/09 10:17:11;;;;;;;0.85;0.63;;;;;;;;;;4935959;29;20118;-62
2022/08/09 10:19:38;;;;;;;1.67;0.80;;;;;;;;;;4949932;28;20053;-61
2022/08/09 10:22:05;;;;;;;1.58;0.70;;;;;;;;;;4990290;28;20061;-62
2022/08/09 10:24:40;;;;;;;1.23;0.70;;;;;;;;;;4957693;28;20047;-63
2022/08/09 10:27:07;;;;;;;1.63;0.60;;;;;;;;;;4936232;29;20039;-62
2022/08/09 10:29:34;;;;;;;1.25;0.60;;;;;;;;;;4942448;28;20137;-61
2022/08/09 10:32:03;;;;;;;0.60;0.60;;;;;;;;;;4974639;28;20081;-64
2022/08/09 10:34:30;;;;;;;1.27;0.75;;;;;;;;;;4960166;28;20058;-61
2022/08/09 10:36:56;;;;;;;1.58;0.70;;;;;;;;;;4951519;29;20158;-62
2022/08/09 10:39:24;;;;;;;2.03;0.88;;;;;;;;;;4946008;28;20062;-62
2022/08/09 10:41:51;;;;;;;3.88;0.82;;;;;;;;;;4935802;29;20059;-61
2022/08/09 10:44:19;;;;;;;1.88;0.65;;;;;;;;;;4934908;28;20095;-57
2022/08/09 10:46:58;;;;;;;2.28;0.73;;;;;;;;;;4953511;28;20123;-61
2022/08/09 10:49:29;;;;;;;2.35;0.70;;;;;;;;;;4955046;28;20058;-61
2022/08/09 10:52:02;;;;;;;2.25;0.73;;;;;;;;;;4951567;28;20062;-60
2022/08/09 10:54:29;;;;;;;2.67;1.05;;;;;;;;;;4953990;28;20046;-63
2022/08/09 10:57:06;;;;;;;2.45;0.88;;;;;;;;;;4965133;28;20046;-63
2022/08/09 10:59:32;;;;;;;4.53;0.90;;;;;;;;;;4973947;28;20054;-62
2022/08/09 11:01:59;;;;;;;1.15;0.65;;;;;;;;;;4952431;28;20059;-60
2022/08/09 11:04:31;;;;;;;0.85;0.60;;;;;;;;;;4948234;28;20114;-59
2022/08/09 11:07:16;;;;;;;1.05;0.77;;;;;;;;;;4931381;28;20047;-63
2022/08/09 11:09:52;;;;;;;1.27;0.70;;;;;;;;;;4933620;29;20052;-61
2022/08/09 11:12:20;;;;;;;1.90;0.80;;;;;;;;;;4961335;28;20054;-58
2022/08/09 11:14:50;;;;;;;0.93;0.70;;;;;;;;;;4954593;28;20138;-63
2022/08/09 11:17:51;;;;;;;1.52;0.70;;;;;;;;;;4948177;28;20065;-58
2022/08/09 11:20:21;;;;;;;0.80;0.57;;;;;;;;;;4953480;28;20174;-60
2022/08/09 11:23:01;;;;;;;1.45;0.63;;;;;;;;;;4947274;28;20055;-61
2022/08/09 11:25:41;;;;;;;2.35;0.80;;;;;;;;;;4954111;28;20081;-57
2022/08/09 11:28:27;;;;;;;1.15;0.50;;;;;;;;;;4947099;28;20059;-56
2022/08/09 11:30:53;;;;;;;1.60;0.77;;;;;;;;;;4953282;28;20051;-64
2022/08/09 11:33:28;;;;;;;1.52;0.70;;;;;;;;;;4946686;28;20069;-59
2022/08/09 11:35:57;;;;;;;1.77;0.70;;;;;;;;;;4953001;28;20093;-63
2022/08/09 11:38:24;;;;;;;2.55;0.65;;;;;;;;;;4947692;28;20058;-57
2022/08/09 11:40:51;;;;;;;1.00;0.70;;;;;;;;;;4949958;28;20066;-61
2022/08/09 11:43:37;;;;;;;1.88;0.70;;;;;;;;;;4952879;28;20310;-59
2022/08/09 11:46:05;;;;;;;1.65;0.80;;;;;;;;;;4946487;28;20055;-62
2022/08/09 11:48:32;;;;;;;0.70;0.60;;;;;;;;;;4953582;28;20054;-60
2022/08/09 11:51:02;;;;;;;3.03;0.50;;;;;;;;;;4947318;28;20047;-63
2022/08/09 11:53:30;;;;;;;1.42;0.75;;;;;;;;;;4946345;28;20066;-63
2022/08/09 11:55:57;;;;;;;1.00;0.60;;;;;;;;;;4947015;28;20067;-62
2022/08/09 11:58:45;;;;;;;0.90;0.70;;;;;;;;;;4953314;28;20061;-62
2022/08/09 12:01:12;;;;;;;0.90;0.65;;;;;;;;;;4942550;28;20054;-57
2022/08/09 12:03:42;;;;;;;0.53;0.47;;;;;;;;;;4986836;28;20085;-63
2022/08/09 12:06:12;;;;;;;1.55;0.65;;;;;;;;;;4992353;28;20301;-65
2022/08/09 12:08:45;;;;;;;1.35;0.70;;;;;;;;;;4984204;28;22365;-60
2022/08/09 12:11:12;;;;;;;0.73;0.63;;;;;;;;;;4991068;28;20057;-61
2022/08/09 12:13:41;;;;;;;1.92;0.60;;;;;;;;;;4983112;28;20062;-61
2022/08/09 12:16:09;;;;;;;1.08;0.63;;;;;;;;;;4990248;28;20042;-59
2022/08/09 12:18:36;;;;;;;1.48;0.57;;;;;;;;;;4981475;28;20072;-59
2022/08/09 12:21:04;;;;;;;1.40;0.63;;;;;;;;;;4991374;28;20062;-61
2022/08/09 12:23:43;;;;;;;0.80;0.50;;;;;;;;;;4984187;28;20080;-63
2022/08/09 12:26:09;;;;;;;0.70;0.55;;;;;;;;;;4973056;28;20051;-62
2022/08/09 12:28:38;;;;;;;1.08;0.50;;;;;;;;;;4966596;28;20058;-61
2022/08/09 12:31:16;;;;;;;1.20;0.63;;;;;;;;;;4972167;28;20058;-60
2022/08/09 12:33:43;;;;;;;1.75;0.60;;;;;;;;;;4967828;28;20065;-63
2022/08/09 12:36:10;;;;;;;1.27;0.70;;;;;;;;;;4971322;28;20051;-60
2022/08/09 12:38:37;;;;;;;0.60;0.50;;;;;;;;;;4972336;28;20072;-61
2022/08/09 12:41:05;;;;;;;0.98;0.60;;;;;;;;;;4966161;28;20062;-57
2022/08/09 12:43:33;;;;;;;;;;;;;;;;;;4964897;28;20062;-56
2022/08/09 12:46:00;;;;;;;0.60;0.50;;;;;;;;;;4958940;28;19964;-60
2022/08/09 12:48:29;;;;;;;0.88;0.55;;;;;;;;;;4972534;28;20102;-57
2022/08/09 12:50:56;;;;;;;1.08;0.57;;;;;;;;;;4966383;28;20137;-61
2022/08/09 12:53:25;;;;;;;0.70;0.52;;;;;;;;;;4971913;28;20054;-60
2022/08/09 12:55:52;;;;;;;0.70;0.60;;;;;;;;;;4983289;28;20046;-56
2022/08/09 12:58:20;;;;;;;0.50;0.50;;;;;;;;;;4970654;28;20062;-56
2022/08/09 13:00:47;;;;;;;2.33;0.80;;;;;;;;;;4965383;28;20054;-57
2022/08/09 13:03:13;;;;;;;0.60;0.57;;;;;;;;;;4955169;28;20111;-58
2022/08/09 13:05:41;;;;;;;0.63;0.50;;;;;;;;;;4950209;28;20054;-57
2022/08/09 13:08:13;;;;;;;0.60;0.55;;;;;;;;;;4957836;28;20076;-63
2022/08/09 13:10:48;;;;;;;0.50;0.50;;;;;;;;;;4945847;28;20086;-58
2022/08/09 13:13:18;;;;;;;0.50;0.50;;;;;;;;;;4948035;28;20065;-62
2022/08/09 13:15:53;;;;;;;0.93;0.60;;;;;;;;;;4953081;28;20043;-59
2022/08/09 13:18:20;;;;;;;0.60;0.60;;;;;;;;;;4958426;28;20055;-60
2022/08/09 13:20:47;;;;;;;1.08;0.60;;;;;;;;;;4960024;28;20085;-61
2022/08/09 13:23:16;;;;;;;1.27;0.60;;;;;;;;;;4954105;28;20062;-54
2022/08/09 13:25:44;;;;;;;0.82;0.50;;;;;;;;;;4953764;28;20043;-56
2022/08/09 13:28:11;;;;;;;1.05;0.52;;;;;;;;;;4956913;28;20061;-55
2022/08/09 13:30:38;;;;;;;0.83;0.60;;;;;;;;;;4955621;28;20098;-57
2022/08/09 13:33:08;;;;;;;0.40;0.40;;;;;;;;;;4950695;28;20039;-61
2022/08/09 13:35:35;;;;;;;1.17;0.40;;;;;;;;;;4956260;28;20050;-61
2022/08/09 13:38:01;;;;;;;1.77;0.70;;;;;;;;;;4949286;28;20115;-59
2022/08/09 13:40:28;;;;;;;1.05;0.55;;;;;;;;;;4960483;28;20042;-59
2022/08/09 13:42:56;;;;;;;0.50;0.50;;;;;;;;;;4951688;28;20063;-57
2022/08/09 13:45:22;;;;;;;2.88;0.68;;;;;;;;;;4954539;28;20051;-60
2022/08/09 13:47:49;;;;;;;0.80;0.57;;;;;;;;;;4953415;28;20055;-60
2022/08/09 13:50:18;;;;;;;1.00;0.60;;;;;;;;;;4960187;28;20051;-60
2022/08/09 13:52:45;;;;;;;1.55;0.60;;;;;;;;;;4954589;28;20063;-61
2022/08/09 13:55:12;;;;;;;0.47;0.47;;;;;;;;;;4962335;28;20066;-62
2022/08/09 13:57:40;;;;;;;0.98;0.45;;;;;;;;;;4952319;28;20051;-62
2022/08/09 14:00:12;;;;;;;1.38;0.60;;;;;;;;;;4961709;28;20061;-61
2022/08/09 14:02:40;;;;;;;1.23;0.60;;;;;;;;;;4946090;28;20085;-62
2022/08/09 14:05:07;;;;;;;1.27;0.60;;;;;;;;;;4949412;28;20110;-60
2022/08/09 14:07:35;;;;;;;0.88;0.45;;;;;;;;;;4943614;28;20073;-62
2022/08/09 14:10:01;;;;;;;;;;;;;;;;;;4951336;28;20059;-62
2022/08/09 14:12:28;;;;;;;1.15;0.40;;;;;;;;;;4954792;28;19926;-63
2022/08/09 14:14:57;;;;;;;1.23;0.55;;;;;;;;;;4947175;28;20070;-61
2022/08/09 14:17:24;;;;;;;0.90;0.50;;;;;;;;;;4952999;28;20058;-64
2022/08/09 14:19:51;;;;;;;1.17;0.68;;;;;;;;;;4946505;28;20057;-62
2022/08/09 14:22:18;;;;;;;1.30;0.50;;;;;;;;;;4985621;28;20131;-61
2022/08/09 14:24:53;;;;;;;0.65;0.50;;;;;;;;;;4947178;28;20050;-62
2022/08/09 14:27:19;;;;;;;1.77;0.52;;;;;;;;;;4982514;28;20053;-62
2022/08/09 14:29:46;;;;;;;1.70;0.40;;;;;;;;;;4945964;28;20093;-64
2022/08/09 14:32:12;;;;;;;0.70;0.47;;;;;;;;;;4951239;28;20055;-61
2022/08/09 14:34:43;;;;;;;0.80;0.50;;;;;;;;;;4945514;28;20058;-62
2022/08/09 14:37:10;;;;;;;0.60;0.60;;;;;;;;;;4951190;28;20078;-63
2022/08/09 14:39:37;;;;;;;0.45;0.45;;;;;;;;;;4944590;28;20105;-63
2022/08/09 14:42:05;;;;;;;0.50;0.50;;;;;;;;;;4950876;28;20063;-61
2022/08/09 14:44:32;;;;;;;3.92;1.13;;;;;;;;;;4947225;28;20281;-60
2022/08/09 14:46:59;;;;;;;0.43;0.43;;;;;;;;;;4952970;28;20059;-62
2022/08/09 14:49:26;;;;;;;0.55;0.40;;;;;;;;;;4964659;28;20109;-62
2022/08/09 14:51:52;;;;;;;1.17;0.65;;;;;;;;;;4985295;28;20055;-63
2022/08/09 14:54:19;;;;;;;1.17;0.63;;;;;;;;;;4945962;28;20051;-63